sensor_id;sensor_type;location;lat;lon;timestamp;P1;durP1;ratioP1;P2;durP2;ratioP2
20559;SDS011;10438;51.454;6.718;2023-03-21T00:01:56;18.60;;;6.57;;
20559;SDS011;10438;51.454;6.718;2023-03-21T00:04:22;18.57;;;6.47;;
20559;SDS011;10438;51.454;6.718;2023-03-21T00:06:49;25.40;;;7.23;;
20559;SDS011;10438;51.454;6.718;2023-03-21T00:09:15;16.60;;;6.70;;
20559;SDS011;10438;51.454;6.718;2023-03-21T00:11:41;16.87;;;6.93;;
20559;SDS011;10438;51.454;6.718;2023-03-21T00:14:07;17.40;;;5.83;;
20559;SDS011;10438;51.454;6.718;2023-03-21T00:16:38;17.00;;;6.10;;
20559;SDS011;10438;51.454;6.718;2023-03-21T00:19:03;17.67;;;5.93;;
20559;SDS011;10438;51.454;6.718;2023-03-21T00:21:30;15.03;;;5.90;;
20559;SDS011;10438;51.454;6.718;2023-03-21T00:23:58;17.90;;;6.43;;
20559;SDS011;10438;51.454;6.718;2023-03-21T00:26:24;15.43;;;5.90;;
20559;SDS011;10438;51.454;6.718;2023-03-21T00:28:50;20.63;;;6.33;;
20559;SDS011;10438;51.454;6.718;2023-03-21T00:31:16;15.63;;;5.60;;
20559;SDS011;10438;51.454;6.718;2023-03-21T00:33:42;16.83;;;5.70;;
20559;SDS011;10438;51.454;6.718;2023-03-21T00:36:13;17.67;;;6.27;;
20559;SDS011;10438;51.454;6.718;2023-03-21T00:38:39;15.97;;;6.07;;
20559;SDS011;10438;51.454;6.718;2023-03-21T00:41:06;14.67;;;6.07;;
20559;SDS011;10438;51.454;6.718;2023-03-21T00:43:33;16.33;;;6.10;;
20559;SDS011;10438;51.454;6.718;2023-03-21T00:45:59;22.00;;;5.97;;
20559;SDS011;10438;51.454;6.718;2023-03-21T00:48:25;19.53;;;6.10;;
20559;SDS011;10438;51.454;6.718;2023-03-21T00:50:52;22.50;;;5.77;;
20559;SDS011;10438;51.454;6.718;2023-03-21T00:53:18;16.73;;;5.57;;
20559;SDS011;10438;51.454;6.718;2023-03-21T00:55:45;23.17;;;6.77;;
20559;SDS011;10438;51.454;6.718;2023-03-21T00:58:11;15.27;;;5.83;;
20559;SDS011;10438;51.454;6.718;2023-03-21T01:00:37;18.50;;;6.20;;
20559;SDS011;10438;51.454;6.718;2023-03-21T01:03:03;20.53;;;7.03;;
20559;SDS011;10438;51.454;6.718;2023-03-21T01:05:34;14.37;;;5.70;;
20559;SDS011;10438;51.454;6.718;2023-03-21T01:08:22;17.10;;;5.53;;
20559;SDS011;10438;51.454;6.718;2023-03-21T01:10:49;14.63;;;5.50;;
20559;SDS011;10438;51.454;6.718;2023-03-21T01:13:16;14.43;;;5.57;;
20559;SDS011;10438;51.454;6.718;2023-03-21T01:15:44;19.90;;;6.40;;
20559;SDS011;10438;51.454;6.718;2023-03-21T01:18:16;16.63;;;6.13;;
20559;SDS011;10438;51.454;6.718;2023-03-21T01:20:43;19.97;;;6.33;;
20559;SDS011;10438;51.454;6.718;2023-03-21T01:23:11;17.60;;;5.63;;
20559;SDS011;10438;51.454;6.718;2023-03-21T01:25:37;20.37;;;5.73;;
20559;SDS011;10438;51.454;6.718;2023-03-21T01:28:04;18.10;;;5.83;;
20559;SDS011;10438;51.454;6.718;2023-03-21T01:30:30;16.70;;;5.77;;
20559;SDS011;10438;51.454;6.718;2023-03-21T01:32:56;15.60;;;6.30;;
20559;SDS011;10438;51.454;6.718;2023-03-21T01:35:22;14.87;;;5.90;;
20559;SDS011;10438;51.454;6.718;2023-03-21T01:37:48;18.50;;;5.97;;
20559;SDS011;10438;51.454;6.718;2023-03-21T01:40:17;15.53;;;5.93;;
20559;SDS011;10438;51.454;6.718;2023-03-21T01:42:48;18.93;;;5.77;;
20559;SDS011;10438;51.454;6.718;2023-03-21T01:48:17;14.87;;;6.23;;
20559;SDS011;10438;51.454;6.718;2023-03-21T01:50:45;14.07;;;5.27;;
20559;SDS011;10438;51.454;6.718;2023-03-21T01:53:11;24.13;;;6.57;;
20559;SDS011;10438;51.454;6.718;2023-03-21T01:55:38;17.30;;;6.03;;
20559;SDS011;10438;51.454;6.718;2023-03-21T01:58:04;21.07;;;6.63;;
20559;SDS011;10438;51.454;6.718;2023-03-21T02:00:31;18.17;;;7.43;;
20559;SDS011;10438;51.454;6.718;2023-03-21T02:02:58;18.07;;;6.73;;
20559;SDS011;10438;51.454;6.718;2023-03-21T02:05:31;15.07;;;6.27;;
20559;SDS011;10438;51.454;6.718;2023-03-21T02:08:16;17.97;;;6.67;;
20559;SDS011;10438;51.454;6.718;2023-03-21T02:10:42;13.40;;;6.60;;
20559;SDS011;10438;51.454;6.718;2023-03-21T02:13:09;21.90;;;7.17;;
20559;SDS011;10438;51.454;6.718;2023-03-21T02:15:39;20.70;;;6.60;;
20559;SDS011;10438;51.454;6.718;2023-03-21T02:28:52;20.70;;;7.70;;
20559;SDS011;10438;51.454;6.718;2023-03-21T02:31:40;21.63;;;8.27;;
20559;SDS011;10438;51.454;6.718;2023-03-21T02:37:20;19.67;;;6.87;;
20559;SDS011;10438;51.454;6.718;2023-03-21T02:39:54;16.57;;;6.77;;
20559;SDS011;10438;51.454;6.718;2023-03-21T02:45:20;20.13;;;7.93;;
20559;SDS011;10438;51.454;6.718;2023-03-21T02:47:56;17.63;;;7.10;;
20559;SDS011;10438;51.454;6.718;2023-03-21T02:53:21;15.53;;;6.47;;
20559;SDS011;10438;51.454;6.718;2023-03-21T02:55:49;18.23;;;7.63;;
20559;SDS011;10438;51.454;6.718;2023-03-21T03:01:05;20.87;;;7.83;;
20559;SDS011;10438;51.454;6.718;2023-03-21T03:03:33;25.87;;;8.23;;
20559;SDS011;10438;51.454;6.718;2023-03-21T03:06:01;16.50;;;7.47;;
20559;SDS011;10438;51.454;6.718;2023-03-21T03:11:30;20.17;;;7.20;;
20559;SDS011;10438;51.454;6.718;2023-03-21T03:14:04;17.77;;;7.20;;
20559;SDS011;10438;51.454;6.718;2023-03-21T03:16:48;20.03;;;8.00;;
20559;SDS011;10438;51.454;6.718;2023-03-21T03:19:34;25.53;;;8.13;;
20559;SDS011;10438;51.454;6.718;2023-03-21T03:22:12;24.33;;;7.67;;
20559;SDS011;10438;51.454;6.718;2023-03-21T03:24:46;24.87;;;7.63;;
20559;SDS011;10438;51.454;6.718;2023-03-21T03:27:30;21.00;;;7.80;;
20559;SDS011;10438;51.454;6.718;2023-03-21T03:30:01;25.50;;;7.87;;
20559;SDS011;10438;51.454;6.718;2023-03-21T03:32:36;20.63;;;8.90;;
20559;SDS011;10438;51.454;6.718;2023-03-21T03:35:26;25.17;;;8.47;;
20559;SDS011;10438;51.454;6.718;2023-03-21T03:37:55;19.93;;;8.27;;
20559;SDS011;10438;51.454;6.718;2023-03-21T03:40:26;18.67;;;7.83;;
20559;SDS011;10438;51.454;6.718;2023-03-21T03:42:57;20.43;;;8.60;;
20559;SDS011;10438;51.454;6.718;2023-03-21T03:45:28;21.50;;;8.33;;
20559;SDS011;10438;51.454;6.718;2023-03-21T03:48:05;24.57;;;7.97;;
20559;SDS011;10438;51.454;6.718;2023-03-21T03:50:50;20.80;;;7.70;;
20559;SDS011;10438;51.454;6.718;2023-03-21T03:53:28;20.80;;;8.53;;
20559;SDS011;10438;51.454;6.718;2023-03-21T03:56:14;25.10;;;9.23;;
20559;SDS011;10438;51.454;6.718;2023-03-21T03:58:40;21.93;;;8.83;;
20559;SDS011;10438;51.454;6.718;2023-03-21T04:01:06;16.77;;;7.77;;
20559;SDS011;10438;51.454;6.718;2023-03-21T04:03:32;22.30;;;8.87;;
20559;SDS011;10438;51.454;6.718;2023-03-21T04:05:59;17.43;;;8.17;;
20559;SDS011;10438;51.454;6.718;2023-03-21T04:08:25;18.33;;;7.90;;
20559;SDS011;10438;51.454;6.718;2023-03-21T04:10:50;24.37;;;8.20;;
20559;SDS011;10438;51.454;6.718;2023-03-21T04:13:16;21.80;;;8.10;;
20559;SDS011;10438;51.454;6.718;2023-03-21T04:15:42;17.40;;;7.37;;
20559;SDS011;10438;51.454;6.718;2023-03-21T04:18:09;16.93;;;8.03;;
20559;SDS011;10438;51.454;6.718;2023-03-21T04:20:34;16.50;;;7.80;;
20559;SDS011;10438;51.454;6.718;2023-03-21T04:23:00;20.73;;;7.80;;
20559;SDS011;10438;51.454;6.718;2023-03-21T04:25:25;20.17;;;8.23;;
20559;SDS011;10438;51.454;6.718;2023-03-21T04:27:52;20.53;;;7.33;;
20559;SDS011;10438;51.454;6.718;2023-03-21T04:30:19;24.50;;;8.30;;
20559;SDS011;10438;51.454;6.718;2023-03-21T04:32:45;19.40;;;7.37;;
20559;SDS011;10438;51.454;6.718;2023-03-21T04:35:17;15.00;;;7.07;;
20559;SDS011;10438;51.454;6.718;2023-03-21T04:37:44;22.93;;;8.20;;
20559;SDS011;10438;51.454;6.718;2023-03-21T04:40:10;17.87;;;7.53;;
20559;SDS011;10438;51.454;6.718;2023-03-21T04:42:36;19.23;;;8.07;;
20559;SDS011;10438;51.454;6.718;2023-03-21T04:45:02;20.30;;;8.43;;
20559;SDS011;10438;51.454;6.718;2023-03-21T04:47:28;21.60;;;7.70;;
20559;SDS011;10438;51.454;6.718;2023-03-21T04:49:54;27.10;;;8.30;;
20559;SDS011;10438;51.454;6.718;2023-03-21T04:52:21;23.90;;;9.13;;
20559;SDS011;10438;51.454;6.718;2023-03-21T04:54:46;21.27;;;9.03;;
20559;SDS011;10438;51.454;6.718;2023-03-21T04:57:12;23.47;;;8.80;;
20559;SDS011;10438;51.454;6.718;2023-03-21T04:59:38;25.20;;;9.37;;
20559;SDS011;10438;51.454;6.718;2023-03-21T05:02:03;18.77;;;8.47;;
20559;SDS011;10438;51.454;6.718;2023-03-21T05:04:29;17.07;;;8.03;;
20559;SDS011;10438;51.454;6.718;2023-03-21T05:06:55;18.27;;;9.03;;
20559;SDS011;10438;51.454;6.718;2023-03-21T05:09:20;23.90;;;9.03;;
20559;SDS011;10438;51.454;6.718;2023-03-21T05:11:47;23.23;;;9.77;;
20559;SDS011;10438;51.454;6.718;2023-03-21T05:14:15;21.40;;;8.47;;
20559;SDS011;10438;51.454;6.718;2023-03-21T05:16:43;24.60;;;8.93;;
20559;SDS011;10438;51.454;6.718;2023-03-21T05:19:12;20.70;;;9.00;;
20559;SDS011;10438;51.454;6.718;2023-03-21T05:21:38;22.63;;;8.03;;
20559;SDS011;10438;51.454;6.718;2023-03-21T05:24:16;19.37;;;9.07;;
20559;SDS011;10438;51.454;6.718;2023-03-21T05:26:44;25.40;;;10.50;;
20559;SDS011;10438;51.454;6.718;2023-03-21T05:29:14;21.87;;;9.20;;
20559;SDS011;10438;51.454;6.718;2023-03-21T05:31:41;21.97;;;8.67;;
20559;SDS011;10438;51.454;6.718;2023-03-21T05:34:07;16.53;;;8.47;;
20559;SDS011;10438;51.454;6.718;2023-03-21T05:36:33;23.50;;;8.80;;
20559;SDS011;10438;51.454;6.718;2023-03-21T05:39:00;22.60;;;9.23;;
20559;SDS011;10438;51.454;6.718;2023-03-21T05:41:25;20.80;;;9.83;;
20559;SDS011;10438;51.454;6.718;2023-03-21T05:43:51;27.17;;;10.73;;
20559;SDS011;10438;51.454;6.718;2023-03-21T05:46:17;19.60;;;9.10;;
20559;SDS011;10438;51.454;6.718;2023-03-21T05:48:42;25.93;;;10.47;;
20559;SDS011;10438;51.454;6.718;2023-03-21T05:51:08;24.67;;;10.57;;
20559;SDS011;10438;51.454;6.718;2023-03-21T05:53:33;28.33;;;9.97;;
20559;SDS011;10438;51.454;6.718;2023-03-21T05:55:59;21.17;;;10.43;;
20559;SDS011;10438;51.454;6.718;2023-03-21T05:58:24;30.73;;;11.00;;
20559;SDS011;10438;51.454;6.718;2023-03-21T06:00:50;21.87;;;9.40;;
20559;SDS011;10438;51.454;6.718;2023-03-21T06:03:15;19.53;;;9.43;;
20559;SDS011;10438;51.454;6.718;2023-03-21T06:05:41;25.60;;;9.40;;
20559;SDS011;10438;51.454;6.718;2023-03-21T06:08:06;20.30;;;9.10;;
20559;SDS011;10438;51.454;6.718;2023-03-21T06:10:32;28.70;;;10.60;;
20559;SDS011;10438;51.454;6.718;2023-03-21T06:12:57;24.10;;;9.37;;
20559;SDS011;10438;51.454;6.718;2023-03-21T06:15:23;23.40;;;8.80;;
20559;SDS011;10438;51.454;6.718;2023-03-21T06:17:48;24.70;;;9.13;;
20559;SDS011;10438;51.454;6.718;2023-03-21T06:20:14;20.70;;;9.03;;
20559;SDS011;10438;51.454;6.718;2023-03-21T06:22:40;25.10;;;8.93;;
20559;SDS011;10438;51.454;6.718;2023-03-21T06:25:06;20.93;;;9.03;;
20559;SDS011;10438;51.454;6.718;2023-03-21T06:27:32;22.37;;;8.10;;
20559;SDS011;10438;51.454;6.718;2023-03-21T06:29:58;18.60;;;7.90;;
20559;SDS011;10438;51.454;6.718;2023-03-21T06:32:24;23.47;;;8.90;;
20559;SDS011;10438;51.454;6.718;2023-03-21T06:34:50;22.37;;;7.73;;
20559;SDS011;10438;51.454;6.718;2023-03-21T06:37:16;25.60;;;7.83;;
20559;SDS011;10438;51.454;6.718;2023-03-21T06:39:41;23.33;;;8.37;;
20559;SDS011;10438;51.454;6.718;2023-03-21T06:42:07;22.13;;;8.00;;
20559;SDS011;10438;51.454;6.718;2023-03-21T06:44:33;22.80;;;7.80;;
20559;SDS011;10438;51.454;6.718;2023-03-21T06:46:58;16.97;;;7.03;;
20559;SDS011;10438;51.454;6.718;2023-03-21T06:49:24;18.87;;;7.50;;
20559;SDS011;10438;51.454;6.718;2023-03-21T06:51:51;25.07;;;8.03;;
20559;SDS011;10438;51.454;6.718;2023-03-21T06:54:16;19.77;;;7.40;;
20559;SDS011;10438;51.454;6.718;2023-03-21T06:56:42;22.40;;;8.23;;
20559;SDS011;10438;51.454;6.718;2023-03-21T06:59:08;25.23;;;7.87;;
20559;SDS011;10438;51.454;6.718;2023-03-21T07:01:34;22.07;;;7.60;;
20559;SDS011;10438;51.454;6.718;2023-03-21T07:04:00;19.93;;;7.60;;
20559;SDS011;10438;51.454;6.718;2023-03-21T07:06:26;19.23;;;7.80;;
20559;SDS011;10438;51.454;6.718;2023-03-21T07:08:52;21.63;;;7.60;;
20559;SDS011;10438;51.454;6.718;2023-03-21T07:11:19;25.97;;;7.67;;
20559;SDS011;10438;51.454;6.718;2023-03-21T07:13:45;21.57;;;8.57;;
20559;SDS011;10438;51.454;6.718;2023-03-21T07:16:12;23.20;;;8.07;;
20559;SDS011;10438;51.454;6.718;2023-03-21T07:18:39;19.97;;;7.63;;
20559;SDS011;10438;51.454;6.718;2023-03-21T07:21:05;19.13;;;7.20;;
20559;SDS011;10438;51.454;6.718;2023-03-21T07:23:32;20.00;;;7.07;;
20559;SDS011;10438;51.454;6.718;2023-03-21T07:25:58;21.80;;;6.77;;
20559;SDS011;10438;51.454;6.718;2023-03-21T07:28:25;20.23;;;7.20;;
20559;SDS011;10438;51.454;6.718;2023-03-21T07:30:52;23.17;;;7.23;;
20559;SDS011;10438;51.454;6.718;2023-03-21T07:33:19;16.00;;;6.93;;
20559;SDS011;10438;51.454;6.718;2023-03-21T07:35:46;23.20;;;6.83;;
20559;SDS011;10438;51.454;6.718;2023-03-21T07:38:13;16.70;;;6.37;;
20559;SDS011;10438;51.454;6.718;2023-03-21T07:40:40;18.97;;;7.70;;
20559;SDS011;10438;51.454;6.718;2023-03-21T07:43:06;15.43;;;6.50;;
20559;SDS011;10438;51.454;6.718;2023-03-21T07:45:31;20.90;;;7.03;;
20559;SDS011;10438;51.454;6.718;2023-03-21T07:47:57;21.90;;;7.00;;
20559;SDS011;10438;51.454;6.718;2023-03-21T07:50:22;17.80;;;6.93;;
20559;SDS011;10438;51.454;6.718;2023-03-21T07:52:48;18.27;;;6.33;;
20559;SDS011;10438;51.454;6.718;2023-03-21T07:55:14;22.80;;;6.90;;
20559;SDS011;10438;51.454;6.718;2023-03-21T07:57:41;20.83;;;6.27;;
20559;SDS011;10438;51.454;6.718;2023-03-21T08:00:07;17.33;;;6.97;;
20559;SDS011;10438;51.454;6.718;2023-03-21T08:02:33;21.53;;;6.80;;
20559;SDS011;10438;51.454;6.718;2023-03-21T08:04:58;21.57;;;6.20;;
20559;SDS011;10438;51.454;6.718;2023-03-21T08:07:24;18.57;;;7.07;;
20559;SDS011;10438;51.454;6.718;2023-03-21T08:09:51;20.20;;;7.30;;
20559;SDS011;10438;51.454;6.718;2023-03-21T08:12:17;21.17;;;7.27;;
20559;SDS011;10438;51.454;6.718;2023-03-21T08:14:42;17.07;;;7.60;;
20559;SDS011;10438;51.454;6.718;2023-03-21T08:17:08;15.63;;;7.03;;
20559;SDS011;10438;51.454;6.718;2023-03-21T08:19:34;22.73;;;5.73;;
20559;SDS011;10438;51.454;6.718;2023-03-21T08:22:01;14.07;;;5.87;;
20559;SDS011;10438;51.454;6.718;2023-03-21T08:24:29;19.30;;;6.23;;
20559;SDS011;10438;51.454;6.718;2023-03-21T08:26:55;16.13;;;5.40;;
20559;SDS011;10438;51.454;6.718;2023-03-21T08:29:22;17.23;;;6.23;;
20559;SDS011;10438;51.454;6.718;2023-03-21T08:31:49;20.80;;;6.97;;
20559;SDS011;10438;51.454;6.718;2023-03-21T08:34:14;20.47;;;6.53;;
20559;SDS011;10438;51.454;6.718;2023-03-21T08:36:42;19.70;;;6.03;;
20559;SDS011;10438;51.454;6.718;2023-03-21T08:39:07;18.77;;;6.03;;
20559;SDS011;10438;51.454;6.718;2023-03-21T08:41:34;11.63;;;5.57;;
20559;SDS011;10438;51.454;6.718;2023-03-21T08:44:01;16.93;;;6.57;;
20559;SDS011;10438;51.454;6.718;2023-03-21T08:46:28;16.97;;;7.13;;
20559;SDS011;10438;51.454;6.718;2023-03-21T08:48:55;21.73;;;6.43;;
20559;SDS011;10438;51.454;6.718;2023-03-21T08:51:20;16.53;;;6.90;;
20559;SDS011;10438;51.454;6.718;2023-03-21T08:53:46;18.40;;;6.80;;
20559;SDS011;10438;51.454;6.718;2023-03-21T08:56:14;17.20;;;5.60;;
20559;SDS011;10438;51.454;6.718;2023-03-21T08:58:40;17.10;;;6.03;;
20559;SDS011;10438;51.454;6.718;2023-03-21T09:01:06;12.40;;;5.50;;
20559;SDS011;10438;51.454;6.718;2023-03-21T09:03:35;19.03;;;6.03;;
20559;SDS011;10438;51.454;6.718;2023-03-21T09:06:01;21.60;;;6.57;;
20559;SDS011;10438;51.454;6.718;2023-03-21T09:08:27;17.30;;;6.90;;
20559;SDS011;10438;51.454;6.718;2023-03-21T09:10:53;24.27;;;6.87;;
20559;SDS011;10438;51.454;6.718;2023-03-21T09:13:19;18.80;;;7.67;;
20559;SDS011;10438;51.454;6.718;2023-03-21T09:15:45;18.50;;;7.80;;
20559;SDS011;10438;51.454;6.718;2023-03-21T09:18:11;19.07;;;7.90;;
20559;SDS011;10438;51.454;6.718;2023-03-21T09:20:37;17.93;;;8.37;;
20559;SDS011;10438;51.454;6.718;2023-03-21T09:23:04;18.50;;;8.53;;
20559;SDS011;10438;51.454;6.718;2023-03-21T09:25:30;19.33;;;8.90;;
20559;SDS011;10438;51.454;6.718;2023-03-21T09:27:56;18.30;;;7.73;;
20559;SDS011;10438;51.454;6.718;2023-03-21T09:30:23;18.50;;;8.30;;
20559;SDS011;10438;51.454;6.718;2023-03-21T09:32:49;15.47;;;7.03;;
20559;SDS011;10438;51.454;6.718;2023-03-21T09:35:17;19.73;;;8.73;;
20559;SDS011;10438;51.454;6.718;2023-03-21T09:37:44;14.43;;;7.27;;
20559;SDS011;10438;51.454;6.718;2023-03-21T09:46:27;19.60;;;8.90;;
20559;SDS011;10438;51.454;6.718;2023-03-21T09:49:00;18.47;;;8.40;;
20559;SDS011;10438;51.454;6.718;2023-03-21T09:51:34;19.80;;;8.40;;
20559;SDS011;10438;51.454;6.718;2023-03-21T09:54:10;21.33;;;8.70;;
20559;SDS011;10438;51.454;6.718;2023-03-21T09:56:41;21.67;;;8.90;;
20559;SDS011;10438;51.454;6.718;2023-03-21T09:59:12;17.20;;;7.77;;
20559;SDS011;10438;51.454;6.718;2023-03-21T10:01:44;20.60;;;8.53;;
20559;SDS011;10438;51.454;6.718;2023-03-21T10:04:12;32.63;;;9.40;;
20559;SDS011;10438;51.454;6.718;2023-03-21T10:06:44;23.57;;;8.90;;
20559;SDS011;10438;51.454;6.718;2023-03-21T10:09:19;21.20;;;10.17;;
20559;SDS011;10438;51.454;6.718;2023-03-21T10:11:51;22.77;;;10.97;;
20559;SDS011;10438;51.454;6.718;2023-03-21T10:16:55;20.87;;;9.33;;
20559;SDS011;10438;51.454;6.718;2023-03-21T10:19:25;23.03;;;8.47;;
20559;SDS011;10438;51.454;6.718;2023-03-21T10:21:52;23.47;;;8.10;;
20559;SDS011;10438;51.454;6.718;2023-03-21T10:24:19;20.73;;;8.23;;
20559;SDS011;10438;51.454;6.718;2023-03-21T10:26:47;15.30;;;7.37;;
20559;SDS011;10438;51.454;6.718;2023-03-21T10:29:14;19.83;;;8.03;;
20559;SDS011;10438;51.454;6.718;2023-03-21T10:31:42;18.20;;;7.83;;
20559;SDS011;10438;51.454;6.718;2023-03-21T10:34:52;16.43;;;7.63;;
20559;SDS011;10438;51.454;6.718;2023-03-21T10:37:01;18.40;;;7.73;;
20559;SDS011;10438;51.454;6.718;2023-03-21T10:42:04;18.93;;;9.23;;
20559;SDS011;10438;51.454;6.718;2023-03-21T10:44:32;20.97;;;9.10;;
20559;SDS011;10438;51.454;6.718;2023-03-21T10:47:04;17.57;;;8.47;;
20559;SDS011;10438;51.454;6.718;2023-03-21T10:49:31;21.17;;;8.73;;
20559;SDS011;10438;51.454;6.718;2023-03-21T10:51:58;20.27;;;8.57;;
20559;SDS011;10438;51.454;6.718;2023-03-21T10:54:28;18.00;;;7.80;;
20559;SDS011;10438;51.454;6.718;2023-03-21T10:56:57;19.27;;;8.50;;
20559;SDS011;10438;51.454;6.718;2023-03-21T10:59:38;16.67;;;7.67;;
20559;SDS011;10438;51.454;6.718;2023-03-21T11:02:18;19.33;;;8.47;;
20559;SDS011;10438;51.454;6.718;2023-03-21T11:05:06;20.03;;;8.67;;
20559;SDS011;10438;51.454;6.718;2023-03-21T11:07:42;16.27;;;7.50;;
20559;SDS011;10438;51.454;6.718;2023-03-21T11:10:11;16.77;;;7.70;;
20559;SDS011;10438;51.454;6.718;2023-03-21T11:12:52;19.97;;;8.20;;
20559;SDS011;10438;51.454;6.718;2023-03-21T11:17:58;14.73;;;7.23;;
20559;SDS011;10438;51.454;6.718;2023-03-21T11:20:24;15.70;;;7.70;;
20559;SDS011;10438;51.454;6.718;2023-03-21T11:22:54;18.37;;;6.90;;
20559;SDS011;10438;51.454;6.718;2023-03-21T11:28:07;15.57;;;7.23;;
20559;SDS011;10438;51.454;6.718;2023-03-21T11:30:38;16.30;;;7.37;;
20559;SDS011;10438;51.454;6.718;2023-03-21T11:33:19;18.73;;;7.10;;
20559;SDS011;10438;51.454;6.718;2023-03-21T11:35:56;15.17;;;6.27;;
20559;SDS011;10438;51.454;6.718;2023-03-21T11:38:31;17.90;;;6.03;;
20559;SDS011;10438;51.454;6.718;2023-03-21T11:41:02;15.30;;;6.50;;
20559;SDS011;10438;51.454;6.718;2023-03-21T11:43:30;13.70;;;5.63;;
20559;SDS011;10438;51.454;6.718;2023-03-21T11:46:08;13.70;;;5.43;;
20559;SDS011;10438;51.454;6.718;2023-03-21T11:51:09;13.77;;;5.43;;
20559;SDS011;10438;51.454;6.718;2023-03-21T11:53:48;13.37;;;5.73;;
20559;SDS011;10438;51.454;6.718;2023-03-21T12:01:36;14.27;;;5.30;;
20559;SDS011;10438;51.454;6.718;2023-03-21T12:04:40;11.20;;;5.50;;
20559;SDS011;10438;51.454;6.718;2023-03-21T12:14:46;17.20;;;6.00;;
20559;SDS011;10438;51.454;6.718;2023-03-21T12:26:07;14.03;;;5.70;;
20559;SDS011;10438;51.454;6.718;2023-03-21T12:28:45;16.27;;;5.40;;
20559;SDS011;10438;51.454;6.718;2023-03-21T12:32:05;12.83;;;5.03;;
20559;SDS011;10438;51.454;6.718;2023-03-21T12:39:45;12.80;;;5.37;;
20559;SDS011;10438;51.454;6.718;2023-03-21T12:44:43;9.77;;;5.00;;
20559;SDS011;10438;51.454;6.718;2023-03-21T12:47:15;11.13;;;5.50;;
20559;SDS011;10438;51.454;6.718;2023-03-21T12:49:53;12.00;;;5.57;;
20559;SDS011;10438;51.454;6.718;2023-03-21T12:52:28;16.60;;;5.87;;
20559;SDS011;10438;51.454;6.718;2023-03-21T12:54:58;12.50;;;5.57;;
20559;SDS011;10438;51.454;6.718;2023-03-21T12:58:14;14.17;;;5.87;;
20559;SDS011;10438;51.454;6.718;2023-03-21T13:00:47;16.73;;;6.73;;
20559;SDS011;10438;51.454;6.718;2023-03-21T13:03:25;12.60;;;5.40;;
20559;SDS011;10438;51.454;6.718;2023-03-21T13:06:00;8.67;;;5.43;;
20559;SDS011;10438;51.454;6.718;2023-03-21T13:08:36;16.13;;;6.10;;
20559;SDS011;10438;51.454;6.718;2023-03-21T13:11:22;12.90;;;5.93;;
20559;SDS011;10438;51.454;6.718;2023-03-21T13:14:03;10.27;;;5.70;;
20559;SDS011;10438;51.454;6.718;2023-03-21T13:19:25;12.43;;;5.13;;
20559;SDS011;10438;51.454;6.718;2023-03-21T13:24:46;16.20;;;5.57;;
20559;SDS011;10438;51.454;6.718;2023-03-21T13:29:59;13.60;;;5.70;;
20559;SDS011;10438;51.454;6.718;2023-03-21T13:32:43;9.07;;;4.63;;
20559;SDS011;10438;51.454;6.718;2023-03-21T13:35:13;13.57;;;5.10;;
20559;SDS011;10438;51.454;6.718;2023-03-21T13:37:49;11.43;;;4.83;;
20559;SDS011;10438;51.454;6.718;2023-03-21T13:40:40;11.07;;;4.97;;
20559;SDS011;10438;51.454;6.718;2023-03-21T13:46:06;10.57;;;4.60;;
20559;SDS011;10438;51.454;6.718;2023-03-21T13:59:20;11.50;;;4.50;;
20559;SDS011;10438;51.454;6.718;2023-03-21T14:04:39;11.70;;;4.50;;
20559;SDS011;10438;51.454;6.718;2023-03-21T14:07:14;8.67;;;4.20;;
20559;SDS011;10438;51.454;6.718;2023-03-21T14:09:49;11.30;;;4.70;;
20559;SDS011;10438;51.454;6.718;2023-03-21T14:12:17;11.93;;;4.57;;
20559;SDS011;10438;51.454;6.718;2023-03-21T14:14:58;12.83;;;5.00;;
20559;SDS011;10438;51.454;6.718;2023-03-21T14:17:30;13.20;;;4.80;;
20559;SDS011;10438;51.454;6.718;2023-03-21T14:20:14;10.60;;;4.57;;
20559;SDS011;10438;51.454;6.718;2023-03-21T14:22:45;9.60;;;4.43;;
20559;SDS011;10438;51.454;6.718;2023-03-21T14:25:13;13.00;;;4.50;;
20559;SDS011;10438;51.454;6.718;2023-03-21T14:27:41;12.97;;;4.90;;
20559;SDS011;10438;51.454;6.718;2023-03-21T14:30:20;12.50;;;4.93;;
20559;SDS011;10438;51.454;6.718;2023-03-21T14:33:21;12.50;;;5.17;;
20559;SDS011;10438;51.454;6.718;2023-03-21T14:36:03;11.60;;;5.33;;
20559;SDS011;10438;51.454;6.718;2023-03-21T14:38:36;9.57;;;4.53;;
20559;SDS011;10438;51.454;6.718;2023-03-21T14:41:03;12.83;;;4.97;;
20559;SDS011;10438;51.454;6.718;2023-03-21T14:43:29;12.00;;;5.10;;
20559;SDS011;10438;51.454;6.718;2023-03-21T14:45:57;12.67;;;5.13;;
20559;SDS011;10438;51.454;6.718;2023-03-21T14:48:28;11.83;;;5.07;;
20559;SDS011;10438;51.454;6.718;2023-03-21T14:51:04;12.00;;;5.03;;
20559;SDS011;10438;51.454;6.718;2023-03-21T14:53:38;11.13;;;4.90;;
20559;SDS011;10438;51.454;6.718;2023-03-21T14:56:06;10.70;;;5.53;;
20559;SDS011;10438;51.454;6.718;2023-03-21T14:58:46;9.73;;;4.20;;
20559;SDS011;10438;51.454;6.718;2023-03-21T15:01:30;9.20;;;4.80;;
20559;SDS011;10438;51.454;6.718;2023-03-21T15:03:58;9.70;;;4.83;;
20559;SDS011;10438;51.454;6.718;2023-03-21T15:06:28;10.07;;;4.53;;
20559;SDS011;10438;51.454;6.718;2023-03-21T15:11:29;11.15;;;4.60;;
20559;SDS011;10438;51.454;6.718;2023-03-21T15:14:00;9.60;;;4.13;;
20559;SDS011;10438;51.454;6.718;2023-03-21T15:16:28;10.63;;;4.20;;
20559;SDS011;10438;51.454;6.718;2023-03-21T15:18:55;13.65;;;4.78;;
20559;SDS011;10438;51.454;6.718;2023-03-21T15:21:26;14.60;;;6.00;;
20559;SDS011;10438;51.454;6.718;2023-03-21T15:23:57;11.05;;;4.82;;
20559;SDS011;10438;51.454;6.718;2023-03-21T15:26:29;13.05;;;5.53;;
20559;SDS011;10438;51.454;6.718;2023-03-21T15:28:58;11.57;;;4.80;;
20559;SDS011;10438;51.454;6.718;2023-03-21T15:31:27;11.43;;;4.83;;
20559;SDS011;10438;51.454;6.718;2023-03-21T15:33:55;17.70;;;5.23;;
20559;SDS011;10438;51.454;6.718;2023-03-21T15:36:24;18.80;;;6.00;;
20559;SDS011;10438;51.454;6.718;2023-03-21T15:38:56;11.40;;;5.20;;
20559;SDS011;10438;51.454;6.718;2023-03-21T15:41:27;12.07;;;4.80;;
20559;SDS011;10438;51.454;6.718;2023-03-21T15:46:37;11.50;;;4.63;;
20559;SDS011;10438;51.454;6.718;2023-03-21T15:49:15;13.63;;;4.50;;
20559;SDS011;10438;51.454;6.718;2023-03-21T15:52:06;9.87;;;4.23;;
20559;SDS011;10438;51.454;6.718;2023-03-21T15:57:28;11.43;;;4.27;;
20559;SDS011;10438;51.454;6.718;2023-03-21T16:00:40;10.60;;;4.67;;
20559;SDS011;10438;51.454;6.718;2023-03-21T16:03:02;12.73;;;5.37;;
20559;SDS011;10438;51.454;6.718;2023-03-21T16:05:34;10.30;;;4.97;;
20559;SDS011;10438;51.454;6.718;2023-03-21T16:08:17;11.07;;;4.90;;
20559;SDS011;10438;51.454;6.718;2023-03-21T16:10:51;16.57;;;5.97;;
20559;SDS011;10438;51.454;6.718;2023-03-21T16:13:16;16.23;;;6.43;;
20559;SDS011;10438;51.454;6.718;2023-03-21T16:15:42;13.57;;;6.70;;
20559;SDS011;10438;51.454;6.718;2023-03-21T16:18:11;14.20;;;6.43;;
20559;SDS011;10438;51.454;6.718;2023-03-21T16:20:40;15.27;;;6.43;;
20559;SDS011;10438;51.454;6.718;2023-03-21T16:23:11;13.20;;;5.43;;
20559;SDS011;10438;51.454;6.718;2023-03-21T16:25:38;12.37;;;5.87;;
20559;SDS011;10438;51.454;6.718;2023-03-21T16:28:05;12.57;;;5.77;;
20559;SDS011;10438;51.454;6.718;2023-03-21T16:30:36;13.13;;;6.07;;
20559;SDS011;10438;51.454;6.718;2023-03-21T16:33:02;12.63;;;5.17;;
20559;SDS011;10438;51.454;6.718;2023-03-21T16:35:27;13.93;;;5.47;;
20559;SDS011;10438;51.454;6.718;2023-03-21T16:37:53;15.93;;;5.47;;
20559;SDS011;10438;51.454;6.718;2023-03-21T16:40:21;14.83;;;5.70;;
20559;SDS011;10438;51.454;6.718;2023-03-21T16:42:48;9.93;;;4.33;;